createdAt,value
2019-04-07T00:00:28.413Z,97202
2019-04-07T00:01:58.360Z,97202
2019-04-07T00:03:28.706Z,97202
2019-04-07T00:05:14.376Z,97200
2019-04-07T00:06:43.692Z,97202
2019-04-07T00:08:12.512Z,97203
2019-04-07T00:09:41.614Z,97203
2019-04-07T00:11:10.815Z,97203
2019-04-07T00:12:41.377Z,97204
2019-04-07T00:14:11.218Z,97205
2019-04-07T00:15:41.530Z,97208
2019-04-07T00:17:10.731Z,97212
2019-04-07T00:18:41.652Z,97215
2019-04-07T00:20:10.575Z,97214
2019-04-07T00:21:40.174Z,97215
2019-04-07T00:23:09.775Z,97217
2019-04-07T00:24:39.420Z,97215
2019-04-07T00:26:08.258Z,97214
2019-04-07T00:27:36.983Z,97212
2019-04-07T00:29:06.659Z,97211
2019-04-07T00:30:35.374Z,97210
2019-04-07T00:32:05.142Z,97208
2019-04-07T00:33:34.812Z,97205
2019-04-07T00:35:04.340Z,97206
2019-04-07T00:36:33.139Z,97207
2019-04-07T00:38:02.376Z,97207
2019-04-07T00:39:31.438Z,97206
2019-04-07T00:41:01.476Z,97205
2019-04-07T00:42:31.215Z,97207
2019-04-07T00:44:01.692Z,97207
2019-04-07T00:45:30.773Z,97208
2019-04-07T00:47:00.297Z,97208
2019-04-07T00:48:29.458Z,97207
2019-04-07T00:49:59.060Z,97206
2019-04-07T00:51:32.132Z,97205
2019-04-07T00:53:01.397Z,97202
2019-04-07T00:54:33.229Z,97201
2019-04-07T00:56:05.181Z,97201
2019-04-07T00:57:35.509Z,97203
2019-04-07T00:59:05.452Z,97201
2019-04-07T01:00:34.771Z,97201
2019-04-07T01:02:03.534Z,97201
2019-04-07T01:03:32.817Z,97202
2019-04-07T01:05:02.441Z,97204
2019-04-07T01:06:32.125Z,97206
2019-04-07T01:08:02.497Z,97203
2019-04-07T01:09:31.230Z,97204
2019-04-07T01:11:00.013Z,97202
2019-04-07T01:12:29.446Z,97201
2019-04-07T01:13:58.313Z,97201
2019-04-07T01:15:27.917Z,97200
2019-04-07T01:16:58.491Z,97201
2019-04-07T01:18:30.597Z,97199
2019-04-07T01:19:59.891Z,97199
2019-04-07T01:21:29.264Z,97198
2019-04-07T01:22:58.095Z,97198
2019-04-07T01:24:27.846Z,97197
2019-04-07T01:25:57.458Z,97195
2019-04-07T01:27:27.068Z,97196
2019-04-07T01:28:55.862Z,97194
2019-04-07T01:30:25.297Z,97192
2019-04-07T01:31:54.862Z,97195
2019-04-07T01:33:23.684Z,97197
2019-04-07T01:34:52.491Z,97198
2019-04-07T01:36:22.722Z,97201
2019-04-07T01:37:52.341Z,97203
2019-04-07T01:39:22.113Z,97205
2019-04-07T01:40:52.067Z,97204
2019-04-07T01:42:21.504Z,97205
2019-04-07T01:43:50.255Z,97205
2019-04-07T01:45:18.976Z,97205
2019-04-07T01:46:50.891Z,97204
2019-04-07T01:48:20.460Z,97203
2019-04-07T01:49:50.322Z,97202
2019-04-07T01:51:21.224Z,97200
2019-04-07T01:52:50.458Z,97199
2019-04-07T01:54:23.099Z,97201
2019-04-07T01:55:53.784Z,97203
2019-04-07T01:57:23.660Z,97204
2019-04-07T01:58:53.692Z,97204
2019-04-07T02:00:22.777Z,97205
2019-04-07T02:01:51.890Z,97205
2019-04-07T02:03:21.929Z,97207
2019-04-07T02:04:51.421Z,97208
2019-04-07T02:06:22.241Z,97208
2019-04-07T02:07:51.400Z,97209
2019-04-07T02:09:20.177Z,97206
2019-04-07T02:10:49.672Z,97204
2019-04-07T02:12:19.964Z,97203
2019-04-07T02:13:50.590Z,97203
2019-04-07T02:15:19.310Z,97202
2019-04-07T02:16:49.106Z,97202
2019-04-07T02:18:18.740Z,97203
2019-04-07T02:19:48.338Z,97205
2019-04-07T02:21:17.489Z,97205
2019-04-07T02:22:47.078Z,97206
2019-04-07T02:24:16.512Z,97206
2019-04-07T02:25:48.180Z,97205
2019-04-07T02:27:18.095Z,97204
2019-04-07T02:28:48.508Z,97206
2019-04-07T02:30:19.995Z,97208
2019-04-07T02:31:50.138Z,97206
2019-04-07T02:33:19.869Z,97206
2019-04-07T02:34:49.173Z,97204
2019-04-07T02:36:31.823Z,97204
2019-04-07T02:38:02.407Z,97204
2019-04-07T02:39:32.897Z,97204
2019-04-07T02:41:02.019Z,97204
2019-04-07T02:42:32.387Z,97203
2019-04-07T02:44:02.972Z,97204
2019-04-07T02:45:34.707Z,97202
2019-04-07T02:47:04.836Z,97202
2019-04-07T02:48:35.275Z,97201
2019-04-07T02:50:04.760Z,97202
2019-04-07T02:51:34.734Z,97202
2019-04-07T02:53:05.805Z,97202
2019-04-07T02:54:36.164Z,97202
2019-04-07T02:56:06.477Z,97204
2019-04-07T02:57:37.179Z,97203
2019-04-07T02:59:06.416Z,97205
2019-04-07T03:00:36.544Z,97207
2019-04-07T03:02:06.050Z,97208
2019-04-07T03:03:34.824Z,97208
2019-04-07T03:05:06.387Z,97209
2019-04-07T03:06:52.947Z,97212
2019-04-07T03:08:24.915Z,97214
2019-04-07T03:09:54.875Z,97216
2019-04-07T03:11:25.222Z,97216
2019-04-07T03:12:54.862Z,97215
2019-04-07T03:14:23.617Z,97214
2019-04-07T03:15:53.382Z,97214
2019-04-07T03:17:23.499Z,97216
2019-04-07T03:18:53.151Z,97216
2019-04-07T03:20:24.093Z,97215
2019-04-07T03:21:55.253Z,97217
2019-04-07T03:23:26.580Z,97217
2019-04-07T03:24:55.306Z,97216
2019-04-07T03:26:25.972Z,97217
2019-04-07T03:27:57.490Z,97217
2019-04-07T03:29:27.089Z,97218
2019-04-07T03:30:59.762Z,97220
2019-04-07T03:32:37.589Z,97221
2019-04-07T03:34:14.440Z,97221
2019-04-07T03:35:53.808Z,97221
2019-04-07T03:37:47.144Z,97225
2019-04-07T03:39:17.714Z,97228
2019-04-07T03:40:49.445Z,97228
2019-04-07T03:42:19.543Z,97225
2019-04-07T03:43:50.643Z,97223
2019-04-07T03:45:20.746Z,97223
2019-04-07T03:46:51.226Z,97224
2019-04-07T03:48:21.288Z,97222
2019-04-07T03:49:53.151Z,97222
2019-04-07T03:51:22.579Z,97224
2019-04-07T03:52:54.614Z,97224
2019-04-07T03:54:28.529Z,97225
2019-04-07T03:55:58.513Z,97226
2019-04-07T03:57:28.102Z,97229
2019-04-07T03:58:58.078Z,97230
2019-04-07T04:00:27.660Z,97231
2019-04-07T04:01:57.639Z,97233
2019-04-07T04:03:26.440Z,97232
2019-04-07T04:04:57.752Z,97231
2019-04-07T04:06:28.371Z,97230
2019-04-07T04:07:58.056Z,97228
2019-04-07T04:09:28.603Z,97227
2019-04-07T04:10:58.256Z,97228
2019-04-07T04:12:30.221Z,97231
2019-04-07T04:13:59.863Z,97230
2019-04-07T04:15:30.877Z,97229
2019-04-07T04:17:02.237Z,97227
2019-04-07T04:18:31.461Z,97228
2019-04-07T04:20:02.503Z,97227
2019-04-07T04:21:31.298Z,97226
2019-04-07T04:23:00.016Z,97227
2019-04-07T04:24:28.901Z,97226
2019-04-07T04:25:59.191Z,97225
2019-04-07T04:27:28.894Z,97226
2019-04-07T04:28:58.421Z,97223
2019-04-07T04:30:28.671Z,97224
2019-04-07T04:31:59.792Z,97223
2019-04-07T04:33:29.797Z,97227
2019-04-07T04:35:01.093Z,97230
2019-04-07T04:36:32.337Z,97230
2019-04-07T04:38:02.186Z,97231
2019-04-07T04:39:31.627Z,97232
2019-04-07T04:41:01.691Z,97234
2019-04-07T04:42:31.936Z,97233
2019-04-07T04:44:02.305Z,97236
2019-04-07T04:45:31.840Z,97237
2019-04-07T04:47:04.526Z,97238
2019-04-07T04:48:34.022Z,97239
2019-04-07T04:50:04.838Z,97240
2019-04-07T04:51:42.687Z,97244
2019-04-07T04:53:12.655Z,97247
2019-04-07T04:54:42.298Z,97248
2019-04-07T04:56:11.084Z,97250
2019-04-07T04:57:41.302Z,97255
2019-04-07T04:59:10.105Z,97257
2019-04-07T05:00:39.137Z,97261
2019-04-07T05:02:07.904Z,97262
2019-04-07T05:03:38.466Z,97262
2019-04-07T05:05:10.807Z,97262
2019-04-07T05:06:39.775Z,97263
2019-04-07T05:08:11.413Z,97264
2019-04-07T05:09:55.586Z,97266
2019-04-07T05:11:26.254Z,97267
2019-04-07T05:12:56.221Z,97269
2019-04-07T05:14:25.917Z,97268
2019-04-07T05:15:55.901Z,97269
2019-04-07T05:17:26.200Z,97268
2019-04-07T05:18:55.856Z,97271
2019-04-07T05:20:25.289Z,97272
2019-04-07T05:21:55.994Z,97275
2019-04-07T05:23:25.774Z,97276
2019-04-07T05:24:55.693Z,97276
2019-04-07T05:26:25.706Z,97277
2019-04-07T05:27:54.783Z,97277
2019-04-07T05:29:23.851Z,97277
2019-04-07T05:30:54.418Z,97277
2019-04-07T05:32:23.534Z,97279
2019-04-07T05:33:52.622Z,97279
2019-04-07T05:35:22.603Z,97278
2019-04-07T05:36:52.319Z,97280
2019-04-07T05:38:21.393Z,97281
2019-04-07T05:39:51.721Z,97282
2019-04-07T05:41:21.986Z,97283
2019-04-07T05:42:51.698Z,97282
2019-04-07T05:44:21.843Z,97282
2019-04-07T05:45:51.578Z,97286
2019-04-07T05:47:21.392Z,97286
2019-04-07T05:48:52.988Z,97285
2019-04-07T05:50:22.453Z,97288
2019-04-07T05:51:55.698Z,97288
2019-04-07T05:53:25.504Z,97290
2019-04-07T05:54:56.338Z,97291
2019-04-07T05:56:28.496Z,97295
2019-04-07T05:57:59.712Z,97299
2019-04-07T05:59:33.943Z,97301
2019-04-07T06:01:03.561Z,97301
2019-04-07T06:02:36.463Z,97300
2019-04-07T06:04:05.748Z,97301
2019-04-07T06:05:35.821Z,97304
2019-04-07T06:07:06.751Z,97304
2019-04-07T06:08:48.509Z,97307
2019-04-07T06:10:22.962Z,97309
2019-04-07T06:11:56.419Z,97308
2019-04-07T06:13:25.547Z,97309
2019-04-07T06:14:55.278Z,97310
2019-04-07T06:16:27.507Z,97309
2019-04-07T06:18:01.738Z,97307
2019-04-07T06:19:31.606Z,97309
2019-04-07T06:21:01.458Z,97306
2019-04-07T06:22:31.025Z,97305
2019-04-07T06:24:04.880Z,97303
2019-04-07T06:25:43.605Z,97304
2019-04-07T06:27:17.915Z,97306
2019-04-07T06:28:57.293Z,97304
2019-04-07T06:30:32.382Z,97301
2019-04-07T06:32:07.756Z,97301
2019-04-07T06:33:43.305Z,97300
2019-04-07T06:35:19.057Z,97301
2019-04-07T06:36:55.420Z,97302
2019-04-07T06:38:47.542Z,97303
2019-04-07T06:40:25.657Z,97304
2019-04-07T06:41:55.298Z,97305
2019-04-07T06:43:27.859Z,97307
2019-04-07T06:45:01.338Z,97306
2019-04-07T06:46:33.624Z,97309
2019-04-07T06:48:08.460Z,97307
2019-04-07T06:49:45.750Z,97306
2019-04-07T06:51:17.500Z,97309
2019-04-07T06:52:47.807Z,97307
2019-04-07T06:54:22.274Z,97308
2019-04-07T06:55:51.299Z,97309
2019-04-07T06:57:20.984Z,97310
2019-04-07T06:58:50.591Z,97310
2019-04-07T07:00:24.631Z,97309
2019-04-07T07:01:59.445Z,97306
2019-04-07T07:03:29.391Z,97304
2019-04-07T07:05:04.119Z,97304
2019-04-07T07:06:34.203Z,97306
2019-04-07T07:08:05.291Z,97307
2019-04-07T07:09:38.629Z,97306
2019-04-07T07:11:10.543Z,97306
2019-04-07T07:12:45.193Z,97309
2019-04-07T07:14:38.113Z,97308
2019-04-07T07:16:17.792Z,97310
2019-04-07T07:17:51.001Z,97312
2019-04-07T07:19:28.150Z,97316
2019-04-07T07:21:03.693Z,97317
2019-04-07T07:22:33.760Z,97316
2019-04-07T07:24:04.676Z,97317
2019-04-07T07:25:37.363Z,97317
2019-04-07T07:27:12.338Z,97317
2019-04-07T07:28:44.694Z,97318
2019-04-07T07:30:20.119Z,97319
2019-04-07T07:32:03.735Z,97319
2019-04-07T07:33:34.529Z,97319
2019-04-07T07:35:06.462Z,97318
2019-04-07T07:36:37.185Z,97315
2019-04-07T07:38:07.680Z,97316
2019-04-07T07:39:36.671Z,97316
2019-04-07T07:41:07.695Z,97316
2019-04-07T07:42:37.841Z,97316
2019-04-07T07:44:09.904Z,97317
2019-04-07T07:45:46.977Z,97316
2019-04-07T07:47:22.572Z,97312
2019-04-07T07:48:58.121Z,97310
2019-04-07T07:50:30.736Z,97308
2019-04-07T07:52:01.583Z,97309
2019-04-07T07:53:33.335Z,97310
2019-04-07T07:55:05.960Z,97309
2019-04-07T07:56:36.569Z,97311
2019-04-07T07:58:06.098Z,97311
2019-04-07T07:59:40.519Z,97309
2019-04-07T08:01:14.816Z,97308
2019-04-07T08:02:51.621Z,97308
2019-04-07T08:04:27.598Z,97307
2019-04-07T08:05:58.747Z,97307
2019-04-07T08:07:28.946Z,97307
2019-04-07T08:09:13.609Z,97307
2019-04-07T08:10:51.844Z,97306
2019-04-07T08:12:34.615Z,97307
2019-04-07T08:14:05.008Z,97307
2019-04-07T08:15:38.179Z,97306
2019-04-07T08:17:09.485Z,97305
2019-04-07T08:18:46.397Z,97304
2019-04-07T08:20:19.587Z,97303
2019-04-07T08:21:52.061Z,97304
2019-04-07T08:23:22.123Z,97307
2019-04-07T08:24:55.662Z,97307
2019-04-07T08:26:26.087Z,97310
2019-04-07T08:27:55.484Z,97308
2019-04-07T08:29:25.891Z,97309
2019-04-07T08:30:55.863Z,97306
2019-04-07T08:32:31.145Z,97304
2019-04-07T08:34:05.031Z,97303
2019-04-07T08:35:39.729Z,97304
2019-04-07T08:37:15.026Z,97304
2019-04-07T08:38:46.775Z,97304
2019-04-07T08:40:17.077Z,97303
2019-04-07T08:41:48.356Z,97304
2019-04-07T08:43:23.364Z,97306
2019-04-07T08:44:56.825Z,97303
2019-04-07T08:46:35.567Z,97306
2019-04-07T08:48:11.459Z,97306
2019-04-07T08:49:42.466Z,97303
2019-04-07T08:51:13.775Z,97304
2019-04-07T08:52:47.910Z,97303
2019-04-07T08:54:21.576Z,97301
2019-04-07T08:55:55.334Z,97301
2019-04-07T08:57:30.460Z,97302
2019-04-07T08:59:01.786Z,97303
2019-04-07T09:00:32.177Z,97301
2019-04-07T09:02:01.733Z,97299
2019-04-07T09:03:31.521Z,97301
2019-04-07T09:05:02.479Z,97300
2019-04-07T09:06:34.179Z,97299
2019-04-07T09:08:06.395Z,97299
2019-04-07T09:09:48.540Z,97297
2019-04-07T09:11:23.314Z,97300
2019-04-07T09:12:52.600Z,97301
2019-04-07T09:14:23.773Z,97298
2019-04-07T09:15:55.703Z,97298
2019-04-07T09:17:46.127Z,97300
2019-04-07T09:19:16.522Z,97297
2019-04-07T09:20:49.565Z,97294
2019-04-07T09:22:23.195Z,97296
2019-04-07T09:23:56.943Z,97297
2019-04-07T09:25:28.132Z,97296
2019-04-07T09:26:58.575Z,97294
2019-04-07T09:28:29.923Z,97296
2019-04-07T09:30:08.013Z,97296
2019-04-07T09:31:41.105Z,97292
2019-04-07T09:33:09.889Z,97293
2019-04-07T09:34:40.416Z,97293
2019-04-07T09:36:09.249Z,97290
2019-04-07T09:37:38.926Z,97289
2019-04-07T09:39:09.000Z,97293
2019-04-07T09:40:38.445Z,97292
2019-04-07T09:42:07.883Z,97291
2019-04-07T09:43:37.161Z,97291
2019-04-07T09:45:10.950Z,97292
2019-04-07T09:46:47.317Z,97291
2019-04-07T09:48:24.367Z,97291
2019-04-07T09:49:58.134Z,97294
2019-04-07T09:51:27.390Z,97292
2019-04-07T09:52:56.211Z,97293
2019-04-07T09:54:28.184Z,97290
2019-04-07T09:56:00.931Z,97291
2019-04-07T09:57:30.420Z,97288
2019-04-07T09:59:00.431Z,97290
2019-04-07T10:00:31.075Z,97288
2019-04-07T10:02:06.753Z,97288
2019-04-07T10:03:38.640Z,97285
2019-04-07T10:05:11.762Z,97284
2019-04-07T10:06:44.264Z,97282
2019-04-07T10:08:19.553Z,97284
2019-04-07T10:09:50.278Z,97280
2019-04-07T10:11:19.822Z,97277
2019-04-07T10:12:50.986Z,97277
2019-04-07T10:14:20.780Z,97279
2019-04-07T10:15:49.628Z,97277
2019-04-07T10:17:18.357Z,97275
2019-04-07T10:18:47.955Z,97276
2019-04-07T10:20:21.091Z,97277
2019-04-07T10:21:53.730Z,97276
2019-04-07T10:23:23.288Z,97273
2019-04-07T10:24:53.729Z,97274
2019-04-07T10:26:22.996Z,97275
2019-04-07T10:27:55.367Z,97275
2019-04-07T10:29:27.704Z,97275
2019-04-07T10:30:58.721Z,97274
2019-04-07T10:32:29.876Z,97276
2019-04-07T10:34:02.357Z,97273
2019-04-07T10:35:33.645Z,97276
2019-04-07T10:37:05.212Z,97276
2019-04-07T10:38:33.970Z,97274
2019-04-07T10:40:20.834Z,97271
2019-04-07T10:41:51.472Z,97273
2019-04-07T10:43:20.193Z,97271
2019-04-07T10:44:49.396Z,97276
2019-04-07T10:46:18.686Z,97275
2019-04-07T10:47:47.556Z,97273
2019-04-07T10:49:17.101Z,97271
2019-04-07T10:50:45.879Z,97271
2019-04-07T10:52:15.935Z,97272
2019-04-07T10:53:45.074Z,97272
2019-04-07T10:55:15.370Z,97274
2019-04-07T10:56:45.129Z,97273
2019-04-07T10:58:14.209Z,97276
2019-04-07T10:59:45.445Z,97273
2019-04-07T11:01:15.681Z,97272
2019-04-07T11:02:46.050Z,97270
2019-04-07T11:04:15.704Z,97269
2019-04-07T11:05:46.186Z,97267
2019-04-07T11:07:19.010Z,97267
2019-04-07T11:08:47.856Z,97264
2019-04-07T11:10:31.099Z,97263
2019-04-07T11:12:07.060Z,97263
2019-04-07T11:13:36.263Z,97261
2019-04-07T11:15:06.117Z,97259
2019-04-07T11:16:36.714Z,97257
2019-04-07T11:18:08.878Z,97256
2019-04-07T11:19:38.422Z,97256
2019-04-07T11:21:07.294Z,97253
2019-04-07T11:22:37.153Z,97253
2019-04-07T11:24:06.637Z,97256
2019-04-07T11:25:35.375Z,97254
2019-04-07T11:27:05.236Z,97256
2019-04-07T11:28:34.188Z,97253
2019-04-07T11:30:04.881Z,97252
2019-04-07T11:31:34.969Z,97251
2019-04-07T11:33:04.013Z,97253
2019-04-07T11:34:34.334Z,97251
2019-04-07T11:36:04.653Z,97249
2019-04-07T11:37:36.601Z,97250
2019-04-07T11:39:07.114Z,97252
2019-04-07T11:40:52.385Z,97252
2019-04-07T11:42:23.980Z,97252
2019-04-07T11:43:53.453Z,97253
2019-04-07T11:45:23.807Z,97253
2019-04-07T11:46:53.461Z,97252
2019-04-07T11:48:23.246Z,97250
2019-04-07T11:49:55.104Z,97250
2019-04-07T11:51:24.577Z,97250
2019-04-07T11:52:55.231Z,97251
2019-04-07T11:54:25.541Z,97250
2019-04-07T11:55:56.556Z,97250
2019-04-07T11:57:25.996Z,97250
2019-04-07T11:58:57.435Z,97249
2019-04-07T12:00:29.176Z,97248
2019-04-07T12:02:00.596Z,97245
2019-04-07T12:03:32.813Z,97244
2019-04-07T12:05:01.555Z,97247
2019-04-07T12:06:30.572Z,97247
2019-04-07T12:08:02.255Z,97243
2019-04-07T12:09:31.136Z,97246
2019-04-07T12:11:08.021Z,97245
2019-04-07T12:12:37.563Z,97247
2019-04-07T12:14:07.299Z,97250
2019-04-07T12:15:37.383Z,97249
2019-04-07T12:17:13.759Z,97249
2019-04-07T12:18:50.424Z,97250
2019-04-07T12:20:23.525Z,97249
2019-04-07T12:21:56.279Z,97247
2019-04-07T12:23:29.224Z,97247
2019-04-07T12:25:06.740Z,97248
2019-04-07T12:26:42.377Z,97251
2019-04-07T12:28:18.087Z,97250
2019-04-07T12:29:51.428Z,97251
2019-04-07T12:31:21.310Z,97250
2019-04-07T12:32:50.925Z,97250
2019-04-07T12:34:20.501Z,97250
2019-04-07T12:35:55.368Z,97243
2019-04-07T12:37:26.334Z,97242
2019-04-07T12:38:58.632Z,97242
2019-04-07T12:40:30.603Z,97239
2019-04-07T12:42:06.937Z,97239
2019-04-07T12:43:37.862Z,97240
2019-04-07T12:45:06.938Z,97240
2019-04-07T12:46:37.637Z,97240
2019-04-07T12:48:10.130Z,97241
2019-04-07T12:49:46.061Z,97235
2019-04-07T12:51:21.059Z,97233
2019-04-07T12:52:53.091Z,97233
2019-04-07T12:54:23.547Z,97232
2019-04-07T12:56:02.732Z,97234
2019-04-07T12:57:39.298Z,97231
2019-04-07T12:59:09.459Z,97229
2019-04-07T13:01:07.090Z,97231
2019-04-07T13:02:47.649Z,97230
2019-04-07T13:04:20.181Z,97228
2019-04-07T13:05:51.219Z,97227
2019-04-07T13:07:24.268Z,97228
2019-04-07T13:08:57.842Z,97224
2019-04-07T13:10:30.185Z,97225
2019-04-07T13:12:04.266Z,97223
2019-04-07T13:13:37.819Z,97222
2019-04-07T13:15:12.880Z,97222
2019-04-07T13:16:44.261Z,97221
2019-04-07T13:18:14.738Z,97219
2019-04-07T13:19:51.477Z,97217
2019-04-07T13:21:25.123Z,97214
2019-04-07T13:22:55.327Z,97213
2019-04-07T13:24:39.345Z,97213
2019-04-07T13:26:14.350Z,97213
2019-04-07T13:27:44.023Z,97215
2019-04-07T13:29:13.915Z,97215
2019-04-07T13:30:44.589Z,97212
2019-04-07T13:32:14.274Z,97212
2019-04-07T13:33:43.216Z,97212
2019-04-07T13:35:12.036Z,97215
2019-04-07T13:36:41.823Z,97213
2019-04-07T13:38:12.309Z,97212
2019-04-07T13:39:47.326Z,97214
2019-04-07T13:41:18.761Z,97212
2019-04-07T13:42:48.420Z,97211
2019-04-07T13:44:18.015Z,97209
2019-04-07T13:45:52.395Z,97209
2019-04-07T13:47:23.946Z,97209
2019-04-07T13:49:01.458Z,97211
2019-04-07T13:50:38.393Z,97207
2019-04-07T13:52:09.468Z,97208
2019-04-07T13:53:38.504Z,97205
2019-04-07T13:55:12.095Z,97206
2019-04-07T13:56:42.008Z,97207
2019-04-07T13:58:14.863Z,97207
2019-04-07T13:59:48.884Z,97207
2019-04-07T14:01:21.060Z,97211
2019-04-07T14:02:51.779Z,97209
2019-04-07T14:04:22.574Z,97209
2019-04-07T14:05:52.510Z,97211
2019-04-07T14:07:23.709Z,97209
2019-04-07T14:08:52.418Z,97207
2019-04-07T14:10:23.144Z,97205
2019-04-07T14:12:13.113Z,97204
2019-04-07T14:13:47.180Z,97209
2019-04-07T14:15:17.535Z,97212
2019-04-07T14:16:47.673Z,97211
2019-04-07T14:18:17.411Z,97210
2019-04-07T14:19:47.757Z,97207
2019-04-07T14:21:16.934Z,97210
2019-04-07T14:22:46.708Z,97214
2019-04-07T14:24:16.652Z,97215
2019-04-07T14:25:53.851Z,97216
2019-04-07T14:27:25.295Z,97214
2019-04-07T14:28:55.138Z,97213
2019-04-07T14:30:25.304Z,97214
2019-04-07T14:31:54.271Z,97212
2019-04-07T14:33:24.199Z,97215
2019-04-07T14:34:53.861Z,97216
2019-04-07T14:36:22.583Z,97213
2019-04-07T14:37:52.857Z,97212
2019-04-07T14:39:23.129Z,97214
2019-04-07T14:40:52.328Z,97216
2019-04-07T14:42:21.330Z,97218
2019-04-07T14:43:53.166Z,97216
2019-04-07T14:45:24.110Z,97215
2019-04-07T14:46:55.743Z,97209
2019-04-07T14:48:24.831Z,97212
2019-04-07T14:49:57.349Z,97211
2019-04-07T14:51:26.101Z,97218
2019-04-07T14:52:57.662Z,97218
2019-04-07T14:54:29.084Z,97215
2019-04-07T14:56:05.454Z,97216
2019-04-07T14:57:41.474Z,97215
2019-04-07T14:59:11.733Z,97216
2019-04-07T15:00:43.771Z,97218
2019-04-07T15:02:12.809Z,97217
2019-04-07T15:03:43.819Z,97220
2019-04-07T15:05:12.746Z,97222
2019-04-07T15:06:43.895Z,97223
2019-04-07T15:08:16.255Z,97220
2019-04-07T15:09:45.968Z,97217
2019-04-07T15:11:20.360Z,97220
2019-04-07T15:12:51.220Z,97218
2019-04-07T15:14:21.417Z,97222
2019-04-07T15:15:52.417Z,97223
2019-04-07T15:17:22.941Z,97224
2019-04-07T15:18:54.980Z,97224
2019-04-07T15:20:25.200Z,97225
2019-04-07T15:22:03.277Z,97227
2019-04-07T15:23:37.916Z,97225
2019-04-07T15:25:08.973Z,97227
2019-04-07T15:26:40.255Z,97224
2019-04-07T15:28:09.782Z,97226
2019-04-07T15:29:46.775Z,97226
2019-04-07T15:31:20.232Z,97227
2019-04-07T15:32:51.731Z,97224
2019-04-07T15:34:20.497Z,97225
2019-04-07T15:35:55.142Z,97226
2019-04-07T15:37:27.179Z,97227
2019-04-07T15:39:01.376Z,97225
2019-04-07T15:40:36.199Z,97225
2019-04-07T15:42:10.085Z,97227
2019-04-07T15:43:44.211Z,97230
2019-04-07T15:45:17.371Z,97233
2019-04-07T15:46:54.683Z,97235
2019-04-07T15:48:30.629Z,97236
2019-04-07T15:50:03.214Z,97237
2019-04-07T15:51:35.965Z,97240
2019-04-07T15:53:05.057Z,97244
2019-04-07T15:54:35.167Z,97238
2019-04-07T15:56:15.720Z,97245
2019-04-07T15:57:49.128Z,97243
2019-04-07T15:59:30.307Z,97246
2019-04-07T16:01:08.021Z,97248
2019-04-07T16:02:43.413Z,97249
2019-04-07T16:04:14.079Z,97251
2019-04-07T16:05:49.160Z,97252
2019-04-07T16:07:21.325Z,97252
2019-04-07T16:08:51.343Z,97251
2019-04-07T16:10:23.760Z,97252
2019-04-07T16:11:59.423Z,97253
2019-04-07T16:13:31.975Z,97253
2019-04-07T16:15:00.818Z,97253
2019-04-07T16:16:33.575Z,97252
2019-04-07T16:18:07.212Z,97253
2019-04-07T16:19:53.935Z,97256
2019-04-07T16:21:29.777Z,97258
2019-04-07T16:22:59.831Z,97257
2019-04-07T16:24:31.207Z,97261
2019-04-07T16:26:04.047Z,97262
2019-04-07T16:27:39.162Z,97263
2019-04-07T16:29:08.658Z,97263
2019-04-07T16:31:08.731Z,97262
2019-04-07T16:32:37.886Z,97263
2019-04-07T16:34:10.905Z,97264
2019-04-07T16:35:40.818Z,97265
2019-04-07T16:37:14.056Z,97269
2019-04-07T16:38:46.613Z,97269
2019-04-07T16:40:16.656Z,97271
2019-04-07T16:41:50.262Z,97273
2019-04-07T16:43:22.418Z,97272
2019-04-07T16:44:53.495Z,97274
2019-04-07T16:46:28.418Z,97273
2019-04-07T16:47:58.958Z,97274
2019-04-07T16:49:30.521Z,97275
2019-04-07T16:51:03.386Z,97277
2019-04-07T16:52:37.224Z,97277
2019-04-07T16:54:10.259Z,97278
2019-04-07T16:55:41.746Z,97278
2019-04-07T16:57:15.620Z,97279
2019-04-07T16:58:45.412Z,97279
2019-04-07T17:00:18.125Z,97280
2019-04-07T17:01:48.580Z,97280
2019-04-07T17:03:18.181Z,97279
2019-04-07T17:04:46.925Z,97279
2019-04-07T17:06:18.030Z,97282
2019-04-07T17:07:51.739Z,97284
2019-04-07T17:09:29.416Z,97287
2019-04-07T17:11:05.314Z,97284
2019-04-07T17:12:41.206Z,97288
2019-04-07T17:14:11.531Z,97288
2019-04-07T17:15:45.514Z,97290
2019-04-07T17:17:21.437Z,97292
2019-04-07T17:18:57.277Z,97290
2019-04-07T17:20:34.722Z,97295
2019-04-07T17:22:14.889Z,97294
2019-04-07T17:23:47.733Z,97296
2019-04-07T17:25:17.329Z,97296
2019-04-07T17:26:46.813Z,97297
2019-04-07T17:28:19.633Z,97297
2019-04-07T17:29:54.443Z,97299
2019-04-07T17:31:30.982Z,97299
2019-04-07T17:33:06.493Z,97299
2019-04-07T17:34:35.719Z,97299
2019-04-07T17:36:06.030Z,97304
2019-04-07T17:37:36.128Z,97306
2019-04-07T17:39:09.873Z,97308
2019-04-07T17:40:38.846Z,97312
2019-04-07T17:42:12.202Z,97313
2019-04-07T17:43:59.330Z,97313
2019-04-07T17:45:30.986Z,97315
2019-04-07T17:47:04.293Z,97317
2019-04-07T17:48:55.191Z,97318
2019-04-07T17:50:40.862Z,97321
2019-04-07T17:52:15.618Z,97324
2019-04-07T17:53:47.542Z,97325
2019-04-07T17:55:16.432Z,97327
2019-04-07T17:56:47.718Z,97329
2019-04-07T17:58:17.371Z,97330
2019-04-07T17:59:50.500Z,97332
2019-04-07T18:01:24.835Z,97333
2019-04-07T18:03:09.578Z,97334
2019-04-07T18:04:48.609Z,97335
2019-04-07T18:06:24.131Z,97338
2019-04-07T18:07:54.898Z,97340
2019-04-07T18:09:27.298Z,97343
2019-04-07T18:11:00.926Z,97345
2019-04-07T18:12:30.713Z,97344
2019-04-07T18:14:03.861Z,97346
2019-04-07T18:15:38.034Z,97349
2019-04-07T18:17:08.705Z,97353
2019-04-07T18:18:37.922Z,97354
2019-04-07T18:20:13.073Z,97356
2019-04-07T18:21:52.361Z,97359
2019-04-07T18:23:24.687Z,97360
2019-04-07T18:24:54.025Z,97361
2019-04-07T18:26:23.774Z,97365
2019-04-07T18:27:55.373Z,97369
2019-04-07T18:29:30.709Z,97371
2019-04-07T18:31:05.590Z,97374
2019-04-07T18:32:39.496Z,97378
2019-04-07T18:34:15.499Z,97379
2019-04-07T18:35:45.302Z,97382
2019-04-07T18:37:17.009Z,97382
2019-04-07T18:38:51.628Z,97385
2019-04-07T18:40:21.208Z,97388
2019-04-07T18:41:51.702Z,97392
2019-04-07T18:43:25.401Z,97397
2019-04-07T18:44:55.483Z,97399
2019-04-07T18:46:24.988Z,97400
2019-04-07T18:47:59.431Z,97404
2019-04-07T18:49:32.670Z,97406
2019-04-07T18:51:03.145Z,97409
2019-04-07T18:52:33.934Z,97411
2019-04-07T18:54:10.831Z,97416
2019-04-07T18:55:46.320Z,97418
2019-04-07T18:57:16.683Z,97417
2019-04-07T18:58:52.644Z,97419
2019-04-07T19:00:22.011Z,97421
2019-04-07T19:01:51.163Z,97424
2019-04-07T19:03:24.415Z,97425
2019-04-07T19:05:01.040Z,97425
2019-04-07T19:06:31.392Z,97426
2019-04-07T19:08:01.131Z,97426
2019-04-07T19:09:34.482Z,97429
2019-04-07T19:11:19.058Z,97428
2019-04-07T19:13:12.070Z,97432
2019-04-07T19:15:07.828Z,97435
2019-04-07T19:16:40.094Z,97435
2019-04-07T19:18:10.088Z,97436
2019-04-07T19:19:40.033Z,97435
2019-04-07T19:21:13.732Z,97436
2019-04-07T19:22:50.175Z,97439
2019-04-07T19:24:20.097Z,97440
2019-04-07T19:25:52.654Z,97442
2019-04-07T19:27:31.239Z,97444
2019-04-07T19:29:01.790Z,97444
2019-04-07T19:30:35.930Z,97444
2019-04-07T19:32:06.091Z,97444
2019-04-07T19:33:35.741Z,97445
2019-04-07T19:35:09.009Z,97447
2019-04-07T19:36:40.247Z,97447
2019-04-07T19:38:22.040Z,97446
2019-04-07T19:39:57.114Z,97446
2019-04-07T19:41:32.809Z,97448
2019-04-07T19:43:04.652Z,97448
2019-04-07T19:44:51.872Z,97449
2019-04-07T19:46:26.354Z,97449